sensor_id;sensor_type;location;lat;lon;timestamp;P1;durP1;ratioP1;P2;durP2;ratioP2
14665;SDS011;7420;53.574;10.040;2023-03-14T00:00:56;6.82;;;3.13;;
14665;SDS011;7420;53.574;10.040;2023-03-14T00:03:22;6.28;;;3.50;;
14665;SDS011;7420;53.574;10.040;2023-03-14T00:05:47;5.15;;;3.15;;
14665;SDS011;7420;53.574;10.040;2023-03-14T00:08:13;6.00;;;3.22;;
14665;SDS011;7420;53.574;10.040;2023-03-14T00:10:38;4.25;;;3.45;;
14665;SDS011;7420;53.574;10.040;2023-03-14T00:13:04;6.63;;;3.47;;
14665;SDS011;7420;53.574;10.040;2023-03-14T00:15:31;5.13;;;3.65;;
14665;SDS011;7420;53.574;10.040;2023-03-14T00:17:58;5.78;;;2.90;;
14665;SDS011;7420;53.574;10.040;2023-03-14T00:20:24;11.27;;;4.22;;
14665;SDS011;7420;53.574;10.040;2023-03-14T00:22:49;5.05;;;2.97;;
14665;SDS011;7420;53.574;10.040;2023-03-14T00:25:15;9.13;;;3.35;;
14665;SDS011;7420;53.574;10.040;2023-03-14T00:27:40;5.68;;;3.60;;
14665;SDS011;7420;53.574;10.040;2023-03-14T00:30:06;7.18;;;3.30;;
14665;SDS011;7420;53.574;10.040;2023-03-14T00:32:33;8.18;;;2.90;;
14665;SDS011;7420;53.574;10.040;2023-03-14T00:34:58;7.13;;;3.45;;
14665;SDS011;7420;53.574;10.040;2023-03-14T00:37:24;13.55;;;4.13;;
14665;SDS011;7420;53.574;10.040;2023-03-14T00:39:50;5.38;;;3.30;;
14665;SDS011;7420;53.574;10.040;2023-03-14T00:42:16;9.82;;;3.67;;
14665;SDS011;7420;53.574;10.040;2023-03-14T00:44:42;8.15;;;3.78;;
14665;SDS011;7420;53.574;10.040;2023-03-14T00:47:07;8.15;;;3.20;;
14665;SDS011;7420;53.574;10.040;2023-03-14T00:49:33;6.82;;;3.42;;
14665;SDS011;7420;53.574;10.040;2023-03-14T00:51:58;8.02;;;3.38;;
14665;SDS011;7420;53.574;10.040;2023-03-14T00:54:23;5.22;;;2.72;;
14665;SDS011;7420;53.574;10.040;2023-03-14T00:56:49;9.57;;;3.17;;
14665;SDS011;7420;53.574;10.040;2023-03-14T00:59:15;9.48;;;2.97;;
14665;SDS011;7420;53.574;10.040;2023-03-14T01:01:41;10.07;;;4.05;;
14665;SDS011;7420;53.574;10.040;2023-03-14T01:04:07;8.80;;;4.18;;
14665;SDS011;7420;53.574;10.040;2023-03-14T01:06:32;7.40;;;3.45;;
14665;SDS011;7420;53.574;10.040;2023-03-14T01:08:58;7.63;;;2.90;;
14665;SDS011;7420;53.574;10.040;2023-03-14T01:11:25;7.55;;;2.92;;
14665;SDS011;7420;53.574;10.040;2023-03-14T01:13:52;12.07;;;3.60;;
14665;SDS011;7420;53.574;10.040;2023-03-14T01:16:18;6.95;;;2.95;;
14665;SDS011;7420;53.574;10.040;2023-03-14T01:18:45;9.95;;;4.13;;
14665;SDS011;7420;53.574;10.040;2023-03-14T01:21:12;8.82;;;3.67;;
14665;SDS011;7420;53.574;10.040;2023-03-14T01:23:41;9.43;;;3.13;;
14665;SDS011;7420;53.574;10.040;2023-03-14T01:26:13;7.75;;;2.90;;
14665;SDS011;7420;53.574;10.040;2023-03-14T01:28:40;11.80;;;3.33;;
14665;SDS011;7420;53.574;10.040;2023-03-14T01:31:06;7.65;;;3.72;;
14665;SDS011;7420;53.574;10.040;2023-03-14T01:33:34;9.63;;;3.40;;
14665;SDS011;7420;53.574;10.040;2023-03-14T01:36:01;6.63;;;2.90;;
14665;SDS011;7420;53.574;10.040;2023-03-14T01:38:37;8.50;;;3.50;;
14665;SDS011;7420;53.574;10.040;2023-03-14T01:41:03;6.25;;;2.80;;
14665;SDS011;7420;53.574;10.040;2023-03-14T01:43:29;17.98;;;4.35;;
14665;SDS011;7420;53.574;10.040;2023-03-14T01:48:35;5.07;;;2.53;;
14665;SDS011;7420;53.574;10.040;2023-03-14T01:51:08;7.95;;;3.63;;
14665;SDS011;7420;53.574;10.040;2023-03-14T01:53:36;6.35;;;2.70;;
14665;SDS011;7420;53.574;10.040;2023-03-14T01:56:04;13.02;;;3.65;;
14665;SDS011;7420;53.574;10.040;2023-03-14T01:58:31;6.97;;;3.33;;
14665;SDS011;7420;53.574;10.040;2023-03-14T02:01:01;10.27;;;3.13;;
14665;SDS011;7420;53.574;10.040;2023-03-14T02:03:28;7.65;;;3.10;;
14665;SDS011;7420;53.574;10.040;2023-03-14T02:05:56;7.35;;;3.97;;
14665;SDS011;7420;53.574;10.040;2023-03-14T02:08:23;7.47;;;3.83;;
14665;SDS011;7420;53.574;10.040;2023-03-14T02:10:49;9.13;;;4.20;;
14665;SDS011;7420;53.574;10.040;2023-03-14T02:13:16;10.60;;;3.85;;
14665;SDS011;7420;53.574;10.040;2023-03-14T02:15:43;7.35;;;3.70;;
14665;SDS011;7420;53.574;10.040;2023-03-14T02:18:08;8.75;;;3.67;;
14665;SDS011;7420;53.574;10.040;2023-03-14T02:26:15;9.55;;;4.30;;
14665;SDS011;7420;53.574;10.040;2023-03-14T02:28:45;9.05;;;3.95;;
14665;SDS011;7420;53.574;10.040;2023-03-14T02:31:11;5.63;;;3.47;;
14665;SDS011;7420;53.574;10.040;2023-03-14T02:33:37;8.02;;;3.70;;
14665;SDS011;7420;53.574;10.040;2023-03-14T02:36:04;7.60;;;3.45;;
14665;SDS011;7420;53.574;10.040;2023-03-14T02:38:38;9.25;;;4.20;;
14665;SDS011;7420;53.574;10.040;2023-03-14T02:41:11;5.60;;;3.30;;
14665;SDS011;7420;53.574;10.040;2023-03-14T02:43:36;9.55;;;3.38;;
14665;SDS011;7420;53.574;10.040;2023-03-14T02:46:02;9.55;;;3.65;;
14665;SDS011;7420;53.574;10.040;2023-03-14T02:48:34;7.95;;;4.05;;
14665;SDS011;7420;53.574;10.040;2023-03-14T02:51:04;5.85;;;3.40;;
14665;SDS011;7420;53.574;10.040;2023-03-14T02:53:31;9.02;;;3.17;;
14665;SDS011;7420;53.574;10.040;2023-03-14T02:55:59;7.10;;;3.45;;
14665;SDS011;7420;53.574;10.040;2023-03-14T02:58:25;6.05;;;3.10;;
14665;SDS011;7420;53.574;10.040;2023-03-14T03:00:52;11.15;;;4.28;;
14665;SDS011;7420;53.574;10.040;2023-03-14T03:03:17;7.50;;;3.63;;
14665;SDS011;7420;53.574;10.040;2023-03-14T03:05:47;5.18;;;2.90;;
14665;SDS011;7420;53.574;10.040;2023-03-14T03:08:13;13.25;;;4.53;;
14665;SDS011;7420;53.574;10.040;2023-03-14T03:10:39;5.80;;;3.60;;
14665;SDS011;7420;53.574;10.040;2023-03-14T03:13:04;9.23;;;3.92;;
14665;SDS011;7420;53.574;10.040;2023-03-14T03:15:29;7.05;;;4.68;;
14665;SDS011;7420;53.574;10.040;2023-03-14T03:17:55;10.52;;;3.83;;
14665;SDS011;7420;53.574;10.040;2023-03-14T03:20:20;6.25;;;3.60;;
14665;SDS011;7420;53.574;10.040;2023-03-14T03:22:46;11.27;;;4.32;;
14665;SDS011;7420;53.574;10.040;2023-03-14T03:25:11;8.05;;;3.72;;
14665;SDS011;7420;53.574;10.040;2023-03-14T03:27:37;12.00;;;4.03;;
14665;SDS011;7420;53.574;10.040;2023-03-14T03:30:04;7.25;;;4.03;;
14665;SDS011;7420;53.574;10.040;2023-03-14T03:32:30;8.85;;;3.40;;
14665;SDS011;7420;53.574;10.040;2023-03-14T03:34:56;5.78;;;3.33;;
14665;SDS011;7420;53.574;10.040;2023-03-14T03:37:22;9.68;;;3.63;;
14665;SDS011;7420;53.574;10.040;2023-03-14T03:39:50;5.22;;;3.22;;
14665;SDS011;7420;53.574;10.040;2023-03-14T03:42:19;6.88;;;3.78;;
14665;SDS011;7420;53.574;10.040;2023-03-14T03:44:45;8.05;;;3.55;;
14665;SDS011;7420;53.574;10.040;2023-03-14T03:47:10;7.57;;;4.60;;
14665;SDS011;7420;53.574;10.040;2023-03-14T03:49:36;8.02;;;4.00;;
14665;SDS011;7420;53.574;10.040;2023-03-14T03:52:01;6.05;;;3.80;;
14665;SDS011;7420;53.574;10.040;2023-03-14T03:54:27;7.18;;;3.22;;
14665;SDS011;7420;53.574;10.040;2023-03-14T03:56:54;9.25;;;3.50;;
14665;SDS011;7420;53.574;10.040;2023-03-14T03:59:20;5.45;;;3.80;;
14665;SDS011;7420;53.574;10.040;2023-03-14T04:01:46;7.03;;;3.17;;
14665;SDS011;7420;53.574;10.040;2023-03-14T04:04:12;8.30;;;3.20;;
14665;SDS011;7420;53.574;10.040;2023-03-14T04:06:38;6.68;;;3.22;;
14665;SDS011;7420;53.574;10.040;2023-03-14T04:09:11;13.02;;;4.25;;
14665;SDS011;7420;53.574;10.040;2023-03-14T04:11:37;9.18;;;4.85;;
14665;SDS011;7420;53.574;10.040;2023-03-14T04:14:03;7.63;;;3.25;;
14665;SDS011;7420;53.574;10.040;2023-03-14T04:16:29;7.20;;;3.35;;
14665;SDS011;7420;53.574;10.040;2023-03-14T04:18:56;6.32;;;3.70;;
14665;SDS011;7420;53.574;10.040;2023-03-14T04:21:22;7.80;;;3.92;;
14665;SDS011;7420;53.574;10.040;2023-03-14T04:23:48;9.50;;;3.50;;
14665;SDS011;7420;53.574;10.040;2023-03-14T04:26:13;5.60;;;2.67;;
14665;SDS011;7420;53.574;10.040;2023-03-14T04:28:39;8.98;;;4.53;;
14665;SDS011;7420;53.574;10.040;2023-03-14T04:31:08;7.63;;;3.97;;
14665;SDS011;7420;53.574;10.040;2023-03-14T04:33:35;15.52;;;3.95;;
14665;SDS011;7420;53.574;10.040;2023-03-14T04:36:02;6.57;;;3.50;;
14665;SDS011;7420;53.574;10.040;2023-03-14T04:38:28;5.88;;;3.60;;
14665;SDS011;7420;53.574;10.040;2023-03-14T04:40:54;6.13;;;3.60;;
14665;SDS011;7420;53.574;10.040;2023-03-14T04:43:19;5.15;;;3.65;;
14665;SDS011;7420;53.574;10.040;2023-03-14T04:45:45;7.65;;;4.18;;
14665;SDS011;7420;53.574;10.040;2023-03-14T04:48:10;8.98;;;3.22;;
14665;SDS011;7420;53.574;10.040;2023-03-14T04:50:40;6.90;;;4.55;;
14665;SDS011;7420;53.574;10.040;2023-03-14T04:53:05;6.75;;;4.25;;
14665;SDS011;7420;53.574;10.040;2023-03-14T04:55:37;9.68;;;4.60;;
14665;SDS011;7420;53.574;10.040;2023-03-14T04:58:02;7.43;;;3.65;;
14665;SDS011;7420;53.574;10.040;2023-03-14T05:00:28;14.13;;;5.13;;
14665;SDS011;7420;53.574;10.040;2023-03-14T05:02:53;4.55;;;4.00;;
14665;SDS011;7420;53.574;10.040;2023-03-14T05:05:19;8.85;;;4.15;;
14665;SDS011;7420;53.574;10.040;2023-03-14T05:07:44;4.47;;;3.60;;
14665;SDS011;7420;53.574;10.040;2023-03-14T05:10:10;8.48;;;4.00;;
14665;SDS011;7420;53.574;10.040;2023-03-14T05:12:35;8.10;;;3.47;;
14665;SDS011;7420;53.574;10.040;2023-03-14T05:15:01;10.30;;;4.35;;
14665;SDS011;7420;53.574;10.040;2023-03-14T05:17:26;10.15;;;3.97;;
14665;SDS011;7420;53.574;10.040;2023-03-14T05:19:52;6.65;;;3.63;;
14665;SDS011;7420;53.574;10.040;2023-03-14T05:22:18;8.85;;;4.05;;
14665;SDS011;7420;53.574;10.040;2023-03-14T05:24:43;6.90;;;3.92;;
14665;SDS011;7420;53.574;10.040;2023-03-14T05:27:09;6.60;;;4.03;;
14665;SDS011;7420;53.574;10.040;2023-03-14T05:29:44;8.38;;;5.15;;
14665;SDS011;7420;53.574;10.040;2023-03-14T05:32:09;7.10;;;3.95;;
14665;SDS011;7420;53.574;10.040;2023-03-14T05:34:35;6.35;;;4.00;;
14665;SDS011;7420;53.574;10.040;2023-03-14T05:37:00;6.40;;;3.53;;
14665;SDS011;7420;53.574;10.040;2023-03-14T05:39:26;5.72;;;3.40;;
14665;SDS011;7420;53.574;10.040;2023-03-14T05:41:51;7.30;;;4.03;;
14665;SDS011;7420;53.574;10.040;2023-03-14T05:44:18;10.43;;;4.50;;
14665;SDS011;7420;53.574;10.040;2023-03-14T05:46:44;8.15;;;4.53;;
14665;SDS011;7420;53.574;10.040;2023-03-14T05:49:09;10.73;;;5.15;;
14665;SDS011;7420;53.574;10.040;2023-03-14T05:51:34;9.00;;;5.30;;
14665;SDS011;7420;53.574;10.040;2023-03-14T05:54:00;8.48;;;4.47;;
14665;SDS011;7420;53.574;10.040;2023-03-14T05:56:25;10.25;;;6.70;;
14665;SDS011;7420;53.574;10.040;2023-03-14T05:58:51;8.10;;;5.40;;
14665;SDS011;7420;53.574;10.040;2023-03-14T06:01:16;9.63;;;4.80;;
14665;SDS011;7420;53.574;10.040;2023-03-14T06:03:42;7.88;;;5.07;;
14665;SDS011;7420;53.574;10.040;2023-03-14T06:06:07;6.78;;;5.07;;
14665;SDS011;7420;53.574;10.040;2023-03-14T06:08:32;9.88;;;5.07;;
14665;SDS011;7420;53.574;10.040;2023-03-14T06:10:59;10.00;;;6.03;;
14665;SDS011;7420;53.574;10.040;2023-03-14T06:13:27;11.55;;;5.80;;
14665;SDS011;7420;53.574;10.040;2023-03-14T06:15:52;11.05;;;6.30;;
14665;SDS011;7420;53.574;10.040;2023-03-14T06:18:18;9.23;;;5.70;;
14665;SDS011;7420;53.574;10.040;2023-03-14T06:20:43;9.98;;;5.05;;
14665;SDS011;7420;53.574;10.040;2023-03-14T06:23:09;11.55;;;5.03;;
14665;SDS011;7420;53.574;10.040;2023-03-14T06:25:35;10.85;;;5.80;;
14665;SDS011;7420;53.574;10.040;2023-03-14T06:28:01;8.43;;;4.90;;
14665;SDS011;7420;53.574;10.040;2023-03-14T06:30:26;10.43;;;4.75;;
14665;SDS011;7420;53.574;10.040;2023-03-14T06:32:52;8.65;;;3.97;;
14665;SDS011;7420;53.574;10.040;2023-03-14T06:35:18;10.25;;;5.75;;
14665;SDS011;7420;53.574;10.040;2023-03-14T06:37:44;9.85;;;5.93;;
14665;SDS011;7420;53.574;10.040;2023-03-14T06:40:18;5.50;;;4.60;;
14665;SDS011;7420;53.574;10.040;2023-03-14T06:42:44;13.18;;;5.22;;
14665;SDS011;7420;53.574;10.040;2023-03-14T06:45:10;7.90;;;5.15;;
14665;SDS011;7420;53.574;10.040;2023-03-14T06:47:35;8.20;;;5.03;;
14665;SDS011;7420;53.574;10.040;2023-03-14T06:50:03;8.07;;;4.85;;
14665;SDS011;7420;53.574;10.040;2023-03-14T06:52:29;6.10;;;3.97;;
14665;SDS011;7420;53.574;10.040;2023-03-14T06:54:54;7.70;;;4.53;;
14665;SDS011;7420;53.574;10.040;2023-03-14T06:57:20;8.07;;;4.13;;
14665;SDS011;7420;53.574;10.040;2023-03-14T06:59:45;10.25;;;4.35;;
14665;SDS011;7420;53.574;10.040;2023-03-14T07:02:11;9.50;;;4.03;;
14665;SDS011;7420;53.574;10.040;2023-03-14T07:04:37;5.65;;;3.30;;
14665;SDS011;7420;53.574;10.040;2023-03-14T07:07:03;9.02;;;3.42;;
14665;SDS011;7420;53.574;10.040;2023-03-14T07:09:29;7.70;;;4.22;;
14665;SDS011;7420;53.574;10.040;2023-03-14T07:11:54;7.32;;;3.80;;
14665;SDS011;7420;53.574;10.040;2023-03-14T07:14:20;6.95;;;2.88;;
14665;SDS011;7420;53.574;10.040;2023-03-14T07:16:46;7.45;;;3.30;;
14665;SDS011;7420;53.574;10.040;2023-03-14T07:19:11;10.10;;;3.90;;
14665;SDS011;7420;53.574;10.040;2023-03-14T07:21:36;9.63;;;3.75;;
14665;SDS011;7420;53.574;10.040;2023-03-14T07:24:02;7.13;;;2.85;;
14665;SDS011;7420;53.574;10.040;2023-03-14T07:26:28;6.60;;;2.80;;
14665;SDS011;7420;53.574;10.040;2023-03-14T07:28:53;4.78;;;2.63;;
14665;SDS011;7420;53.574;10.040;2023-03-14T07:31:19;7.50;;;3.03;;
14665;SDS011;7420;53.574;10.040;2023-03-14T07:33:44;8.48;;;3.03;;
14665;SDS011;7420;53.574;10.040;2023-03-14T07:36:10;6.90;;;3.85;;
14665;SDS011;7420;53.574;10.040;2023-03-14T07:38:36;6.43;;;3.00;;
14665;SDS011;7420;53.574;10.040;2023-03-14T07:41:01;3.10;;;2.75;;
14665;SDS011;7420;53.574;10.040;2023-03-14T07:43:29;7.00;;;3.10;;
14665;SDS011;7420;53.574;10.040;2023-03-14T07:45:54;6.95;;;3.22;;
14665;SDS011;7420;53.574;10.040;2023-03-14T07:48:20;5.60;;;2.97;;
14665;SDS011;7420;53.574;10.040;2023-03-14T07:50:50;8.70;;;2.78;;
14665;SDS011;7420;53.574;10.040;2023-03-14T07:53:16;4.38;;;2.17;;
14665;SDS011;7420;53.574;10.040;2023-03-14T07:55:42;5.95;;;2.97;;
14665;SDS011;7420;53.574;10.040;2023-03-14T07:58:07;7.05;;;2.65;;
14665;SDS011;7420;53.574;10.040;2023-03-14T08:00:33;7.70;;;2.78;;
14665;SDS011;7420;53.574;10.040;2023-03-14T08:02:58;6.35;;;2.63;;
14665;SDS011;7420;53.574;10.040;2023-03-14T08:05:24;6.38;;;2.17;;
14665;SDS011;7420;53.574;10.040;2023-03-14T08:07:49;3.50;;;2.13;;
14665;SDS011;7420;53.574;10.040;2023-03-14T08:10:15;3.50;;;1.92;;
14665;SDS011;7420;53.574;10.040;2023-03-14T08:12:49;4.65;;;2.53;;
14665;SDS011;7420;53.574;10.040;2023-03-14T08:15:21;4.40;;;2.30;;
14665;SDS011;7420;53.574;10.040;2023-03-14T08:17:47;4.50;;;2.47;;
14665;SDS011;7420;53.574;10.040;2023-03-14T08:20:22;4.18;;;2.42;;
14665;SDS011;7420;53.574;10.040;2023-03-14T08:22:49;5.40;;;2.43;;
14665;SDS011;7420;53.574;10.040;2023-03-14T08:25:14;4.10;;;2.15;;
14665;SDS011;7420;53.574;10.040;2023-03-14T08:27:40;4.20;;;2.00;;
14665;SDS011;7420;53.574;10.040;2023-03-14T08:30:07;4.40;;;2.20;;
14665;SDS011;7420;53.574;10.040;2023-03-14T08:32:38;4.82;;;2.53;;
14665;SDS011;7420;53.574;10.040;2023-03-14T08:35:04;5.10;;;2.42;;
14665;SDS011;7420;53.574;10.040;2023-03-14T08:37:33;6.35;;;2.53;;
14665;SDS011;7420;53.574;10.040;2023-03-14T08:40:00;8.13;;;2.60;;
14665;SDS011;7420;53.574;10.040;2023-03-14T08:42:26;8.02;;;3.20;;
14665;SDS011;7420;53.574;10.040;2023-03-14T08:44:52;5.97;;;3.03;;
14665;SDS011;7420;53.574;10.040;2023-03-14T08:47:17;6.18;;;3.05;;
14665;SDS011;7420;53.574;10.040;2023-03-14T08:49:43;5.05;;;2.70;;
14665;SDS011;7420;53.574;10.040;2023-03-14T08:52:08;8.95;;;3.90;;
14665;SDS011;7420;53.574;10.040;2023-03-14T08:54:34;7.85;;;4.03;;
14665;SDS011;7420;53.574;10.040;2023-03-14T08:56:59;6.22;;;3.33;;
14665;SDS011;7420;53.574;10.040;2023-03-14T08:59:25;5.43;;;3.72;;
14665;SDS011;7420;53.574;10.040;2023-03-14T09:01:50;6.50;;;3.50;;
14665;SDS011;7420;53.574;10.040;2023-03-14T09:04:15;7.00;;;3.97;;
14665;SDS011;7420;53.574;10.040;2023-03-14T09:06:41;4.38;;;3.42;;
14665;SDS011;7420;53.574;10.040;2023-03-14T09:09:07;8.55;;;4.40;;
14665;SDS011;7420;53.574;10.040;2023-03-14T09:11:32;14.77;;;5.60;;
14665;SDS011;7420;53.574;10.040;2023-03-14T09:13:58;8.70;;;4.60;;
14665;SDS011;7420;53.574;10.040;2023-03-14T09:16:24;10.60;;;4.78;;
14665;SDS011;7420;53.574;10.040;2023-03-14T09:18:49;10.23;;;5.55;;
14665;SDS011;7420;53.574;10.040;2023-03-14T09:21:15;6.30;;;4.07;;
14665;SDS011;7420;53.574;10.040;2023-03-14T09:23:40;8.93;;;5.15;;
14665;SDS011;7420;53.574;10.040;2023-03-14T09:26:06;7.07;;;4.30;;
14665;SDS011;7420;53.574;10.040;2023-03-14T09:28:32;8.73;;;4.75;;
14665;SDS011;7420;53.574;10.040;2023-03-14T09:30:57;11.85;;;4.85;;
14665;SDS011;7420;53.574;10.040;2023-03-14T09:33:22;9.50;;;4.50;;
14665;SDS011;7420;53.574;10.040;2023-03-14T09:35:48;4.25;;;3.75;;
14665;SDS011;7420;53.574;10.040;2023-03-14T09:38:14;7.63;;;4.63;;
14665;SDS011;7420;53.574;10.040;2023-03-14T09:40:40;12.40;;;5.57;;
14665;SDS011;7420;53.574;10.040;2023-03-14T09:43:08;9.95;;;4.78;;
14665;SDS011;7420;53.574;10.040;2023-03-14T09:45:37;8.15;;;5.00;;
14665;SDS011;7420;53.574;10.040;2023-03-14T09:48:06;10.88;;;6.05;;
14665;SDS011;7420;53.574;10.040;2023-03-14T09:50:40;10.05;;;6.70;;
14665;SDS011;7420;53.574;10.040;2023-03-14T09:53:18;6.32;;;4.75;;
14665;SDS011;7420;53.574;10.040;2023-03-14T09:55:47;11.55;;;5.32;;
14665;SDS011;7420;53.574;10.040;2023-03-14T09:58:16;12.35;;;4.50;;
14665;SDS011;7420;53.574;10.040;2023-03-14T10:00:42;5.05;;;3.53;;
14665;SDS011;7420;53.574;10.040;2023-03-14T10:05:37;2.83;;;1.65;;
14665;SDS011;7420;53.574;10.040;2023-03-14T10:08:04;3.13;;;1.50;;
14665;SDS011;7420;53.574;10.040;2023-03-14T10:10:30;2.45;;;1.50;;
14665;SDS011;7420;53.574;10.040;2023-03-14T10:13:00;2.55;;;1.80;;
14665;SDS011;7420;53.574;10.040;2023-03-14T10:15:38;2.92;;;1.77;;
14665;SDS011;7420;53.574;10.040;2023-03-14T10:18:05;3.55;;;1.95;;
14665;SDS011;7420;53.574;10.040;2023-03-14T10:20:38;1.50;;;1.40;;
14665;SDS011;7420;53.574;10.040;2023-03-14T10:23:17;4.38;;;1.58;;
14665;SDS011;7420;53.574;10.040;2023-03-14T10:26:07;3.17;;;2.30;;
14665;SDS011;7420;53.574;10.040;2023-03-14T10:28:51;3.72;;;1.65;;
14665;SDS011;7420;53.574;10.040;2023-03-14T10:31:17;1.98;;;1.38;;
14665;SDS011;7420;53.574;10.040;2023-03-14T10:33:56;2.30;;;1.45;;
14665;SDS011;7420;53.574;10.040;2023-03-14T10:36:24;3.90;;;1.60;;
14665;SDS011;7420;53.574;10.040;2023-03-14T10:41:40;3.65;;;2.92;;
14665;SDS011;7420;53.574;10.040;2023-03-14T10:44:18;5.82;;;1.90;;
14665;SDS011;7420;53.574;10.040;2023-03-14T10:46:55;2.17;;;1.20;;
14665;SDS011;7420;53.574;10.040;2023-03-14T10:49:32;2.22;;;1.00;;
14665;SDS011;7420;53.574;10.040;2023-03-14T10:52:41;1.38;;;1.23;;
14665;SDS011;7420;53.574;10.040;2023-03-14T10:54:54;2.08;;;1.25;;
14665;SDS011;7420;53.574;10.040;2023-03-14T10:57:22;1.10;;;1.10;;
14665;SDS011;7420;53.574;10.040;2023-03-14T10:59:48;2.72;;;1.20;;
14665;SDS011;7420;53.574;10.040;2023-03-14T11:04:50;0.90;;;0.90;;
14665;SDS011;7420;53.574;10.040;2023-03-14T11:07:33;0.85;;;0.85;;
14665;SDS011;7420;53.574;10.040;2023-03-14T11:13:04;1.40;;;1.30;;
14665;SDS011;7420;53.574;10.040;2023-03-14T11:18:39;1.20;;;1.10;;
14665;SDS011;7420;53.574;10.040;2023-03-14T11:21:17;1.10;;;1.05;;
14665;SDS011;7420;53.574;10.040;2023-03-14T11:23:54;2.30;;;1.20;;
14665;SDS011;7420;53.574;10.040;2023-03-14T11:29:02;1.65;;;1.30;;
14665;SDS011;7420;53.574;10.040;2023-03-14T11:36:53;3.58;;;1.90;;
14665;SDS011;7420;53.574;10.040;2023-03-14T11:39:20;2.88;;;1.13;;
14665;SDS011;7420;53.574;10.040;2023-03-14T11:41:49;1.42;;;1.25;;
14665;SDS011;7420;53.574;10.040;2023-03-14T11:47:11;1.73;;;1.05;;
14665;SDS011;7420;53.574;10.040;2023-03-14T11:55:02;2.47;;;1.48;;
14665;SDS011;7420;53.574;10.040;2023-03-14T11:57:35;3.85;;;1.48;;
14665;SDS011;7420;53.574;10.040;2023-03-14T12:00:17;4.53;;;1.52;;
14665;SDS011;7420;53.574;10.040;2023-03-14T12:03:02;5.57;;;1.75;;
14665;SDS011;7420;53.574;10.040;2023-03-14T12:08:25;6.72;;;2.08;;
14665;SDS011;7420;53.574;10.040;2023-03-14T12:13:45;2.20;;;1.45;;
14665;SDS011;7420;53.574;10.040;2023-03-14T12:16:25;7.72;;;2.55;;
14665;SDS011;7420;53.574;10.040;2023-03-14T12:18:56;4.60;;;1.73;;
14665;SDS011;7420;53.574;10.040;2023-03-14T12:21:22;5.00;;;2.05;;
14665;SDS011;7420;53.574;10.040;2023-03-14T12:24:14;5.30;;;2.13;;
14665;SDS011;7420;53.574;10.040;2023-03-14T12:26:53;6.25;;;2.20;;
14665;SDS011;7420;53.574;10.040;2023-03-14T12:29:30;2.90;;;2.00;;
14665;SDS011;7420;53.574;10.040;2023-03-14T12:32:22;3.78;;;1.95;;
14665;SDS011;7420;53.574;10.040;2023-03-14T12:34:53;3.05;;;1.60;;
14665;SDS011;7420;53.574;10.040;2023-03-14T12:42:37;4.57;;;1.60;;
14665;SDS011;7420;53.574;10.040;2023-03-14T12:45:25;6.78;;;2.33;;
14665;SDS011;7420;53.574;10.040;2023-03-14T12:48:03;8.50;;;3.00;;
14665;SDS011;7420;53.574;10.040;2023-03-14T12:50:38;8.07;;;2.25;;
14665;SDS011;7420;53.574;10.040;2023-03-14T12:58:30;3.65;;;1.70;;
14665;SDS011;7420;53.574;10.040;2023-03-14T13:01:01;7.55;;;1.92;;
14665;SDS011;7420;53.574;10.040;2023-03-14T13:03:39;8.80;;;2.45;;
14665;SDS011;7420;53.574;10.040;2023-03-14T13:11:54;9.43;;;2.95;;
14665;SDS011;7420;53.574;10.040;2023-03-14T13:14:21;6.88;;;2.72;;
14665;SDS011;7420;53.574;10.040;2023-03-14T13:16:48;6.75;;;2.33;;
14665;SDS011;7420;53.574;10.040;2023-03-14T13:19:18;9.68;;;3.03;;
14665;SDS011;7420;53.574;10.040;2023-03-14T13:21:48;6.57;;;2.90;;
14665;SDS011;7420;53.574;10.040;2023-03-14T13:24:25;7.32;;;3.00;;
14665;SDS011;7420;53.574;10.040;2023-03-14T13:26:53;16.30;;;3.38;;
14665;SDS011;7420;53.574;10.040;2023-03-14T13:29:30;10.43;;;2.70;;
14665;SDS011;7420;53.574;10.040;2023-03-14T13:31:58;11.02;;;2.80;;
14665;SDS011;7420;53.574;10.040;2023-03-14T13:34:26;9.13;;;2.70;;
14665;SDS011;7420;53.574;10.040;2023-03-14T13:36:54;8.52;;;2.67;;
14665;SDS011;7420;53.574;10.040;2023-03-14T13:39:21;11.43;;;4.05;;
14665;SDS011;7420;53.574;10.040;2023-03-14T13:41:50;8.05;;;2.72;;
14665;SDS011;7420;53.574;10.040;2023-03-14T13:44:17;7.05;;;2.00;;
14665;SDS011;7420;53.574;10.040;2023-03-14T13:46:48;14.38;;;3.05;;
14665;SDS011;7420;53.574;10.040;2023-03-14T13:49:17;5.28;;;2.00;;
14665;SDS011;7420;53.574;10.040;2023-03-14T13:51:47;6.82;;;2.38;;
14665;SDS011;7420;53.574;10.040;2023-03-14T13:54:15;8.55;;;2.92;;
14665;SDS011;7420;53.574;10.040;2023-03-14T13:56:41;9.38;;;2.17;;
14665;SDS011;7420;53.574;10.040;2023-03-14T13:59:23;7.78;;;2.13;;
14665;SDS011;7420;53.574;10.040;2023-03-14T14:01:49;3.00;;;1.63;;
14665;SDS011;7420;53.574;10.040;2023-03-14T14:04:17;8.63;;;2.05;;
14665;SDS011;7420;53.574;10.040;2023-03-14T14:06:47;5.35;;;2.15;;
14665;SDS011;7420;53.574;10.040;2023-03-14T14:09:27;9.95;;;2.30;;
14665;SDS011;7420;53.574;10.040;2023-03-14T14:12:05;13.95;;;3.65;;
14665;SDS011;7420;53.574;10.040;2023-03-14T14:17:21;13.27;;;2.33;;
14665;SDS011;7420;53.574;10.040;2023-03-14T14:19:51;10.70;;;2.47;;
14665;SDS011;7420;53.574;10.040;2023-03-14T14:22:17;5.85;;;2.33;;
14665;SDS011;7420;53.574;10.040;2023-03-14T14:24:43;9.40;;;3.33;;
14665;SDS011;7420;53.574;10.040;2023-03-14T14:27:27;7.90;;;2.22;;
14665;SDS011;7420;53.574;10.040;2023-03-14T14:29:59;7.22;;;2.28;;
14665;SDS011;7420;53.574;10.040;2023-03-14T14:32:34;7.28;;;1.85;;
14665;SDS011;7420;53.574;10.040;2023-03-14T14:35:04;10.13;;;2.33;;
14665;SDS011;7420;53.574;10.040;2023-03-14T14:37:31;10.90;;;2.85;;
14665;SDS011;7420;53.574;10.040;2023-03-14T14:39:59;5.35;;;2.20;;
14665;SDS011;7420;53.574;10.040;2023-03-14T14:42:31;11.60;;;1.90;;
14665;SDS011;7420;53.574;10.040;2023-03-14T14:44:57;8.77;;;3.25;;
14665;SDS011;7420;53.574;10.040;2023-03-14T14:47:25;5.60;;;1.92;;
14665;SDS011;7420;53.574;10.040;2023-03-14T14:49:53;4.85;;;2.45;;
14665;SDS011;7420;53.574;10.040;2023-03-14T14:52:39;7.57;;;2.50;;
14665;SDS011;7420;53.574;10.040;2023-03-14T14:55:13;6.60;;;2.20;;
14665;SDS011;7420;53.574;10.040;2023-03-14T14:57:48;5.90;;;1.52;;
14665;SDS011;7420;53.574;10.040;2023-03-14T15:00:19;5.03;;;1.50;;
14665;SDS011;7420;53.574;10.040;2023-03-14T15:02:47;5.63;;;1.83;;
14665;SDS011;7420;53.574;10.040;2023-03-14T15:05:21;5.13;;;1.60;;
14665;SDS011;7420;53.574;10.040;2023-03-14T15:07:48;4.65;;;1.67;;
14665;SDS011;7420;53.574;10.040;2023-03-14T15:10:15;9.52;;;2.47;;
14665;SDS011;7420;53.574;10.040;2023-03-14T15:12:42;7.38;;;2.17;;
14665;SDS011;7420;53.574;10.040;2023-03-14T15:15:08;7.30;;;1.90;;
14665;SDS011;7420;53.574;10.040;2023-03-14T15:17:35;8.88;;;2.22;;
14665;SDS011;7420;53.574;10.040;2023-03-14T15:20:01;6.57;;;2.80;;
14665;SDS011;7420;53.574;10.040;2023-03-14T15:22:29;5.85;;;1.80;;
14665;SDS011;7420;53.574;10.040;2023-03-14T15:24:54;5.95;;;2.95;;
14665;SDS011;7420;53.574;10.040;2023-03-14T15:27:20;6.72;;;2.10;;
14665;SDS011;7420;53.574;10.040;2023-03-14T15:29:45;6.85;;;2.42;;
14665;SDS011;7420;53.574;10.040;2023-03-14T15:32:11;7.82;;;2.25;;
14665;SDS011;7420;53.574;10.040;2023-03-14T15:34:38;9.05;;;2.40;;
14665;SDS011;7420;53.574;10.040;2023-03-14T15:37:04;9.13;;;2.10;;
14665;SDS011;7420;53.574;10.040;2023-03-14T15:39:35;8.05;;;2.75;;
14665;SDS011;7420;53.574;10.040;2023-03-14T15:42:00;9.38;;;2.70;;
14665;SDS011;7420;53.574;10.040;2023-03-14T15:44:26;8.13;;;2.17;;
14665;SDS011;7420;53.574;10.040;2023-03-14T15:46:52;6.97;;;2.00;;
14665;SDS011;7420;53.574;10.040;2023-03-14T15:49:17;7.82;;;2.50;;
14665;SDS011;7420;53.574;10.040;2023-03-14T15:51:43;3.63;;;2.28;;
14665;SDS011;7420;53.574;10.040;2023-03-14T15:54:08;10.73;;;2.97;;